createdAt,value
2018-08-19T00:00:31.531Z,10.60
2018-08-19T00:03:05.308Z,10.70
2018-08-19T00:05:39.188Z,10.03
2018-08-19T00:08:13.769Z,10.33
2018-08-19T00:10:47.597Z,10.40
2018-08-19T00:13:21.531Z,10.50
2018-08-19T00:15:55.413Z,9.97
2018-08-19T00:18:29.251Z,10.37
2018-08-19T00:21:03.070Z,10.20
2018-08-19T00:23:36.873Z,10.23
2018-08-19T00:26:10.611Z,10.30
2018-08-19T00:28:44.336Z,9.63
2018-08-19T00:31:18.908Z,9.80
2018-08-19T00:33:52.791Z,9.37
2018-08-19T00:36:27.371Z,9.27
2018-08-19T00:39:01.896Z,8.87
2018-08-19T00:41:35.528Z,9.00
2018-08-19T00:44:10.115Z,8.77
2018-08-19T00:46:44.810Z,10.43
2018-08-19T00:49:19.409Z,10.23
2018-08-19T00:51:54.007Z,10.30
2018-08-19T00:54:27.809Z,9.50
2018-08-19T00:57:01.590Z,9.40
2018-08-19T00:59:35.358Z,9.43
2018-08-19T01:02:09.041Z,9.77
2018-08-19T01:04:42.775Z,9.23
2018-08-19T01:07:17.230Z,9.50
2018-08-19T01:09:50.985Z,10.67
2018-08-19T01:12:24.792Z,13.03
2018-08-19T01:14:58.548Z,9.00
2018-08-19T01:17:32.405Z,10.77
2018-08-19T01:20:06.976Z,8.65
2018-08-19T01:22:40.933Z,9.33
2018-08-19T01:25:14.694Z,9.52
2018-08-19T01:27:48.513Z,9.60
2018-08-19T01:30:22.331Z,9.10
2018-08-19T01:32:56.908Z,9.85
2018-08-19T01:35:31.565Z,8.88
2018-08-19T01:38:05.289Z,9.45
2018-08-19T01:40:39.892Z,8.40
2018-08-19T01:43:13.703Z,9.73
2018-08-19T01:45:48.221Z,9.13
2018-08-19T01:48:22.011Z,10.18
2018-08-19T01:50:55.716Z,9.57
2018-08-19T01:53:29.376Z,9.87
2018-08-19T01:56:03.240Z,9.50
2018-08-19T01:58:37.838Z,9.05
2018-08-19T02:01:11.674Z,8.98
2018-08-19T02:03:45.647Z,9.25
2018-08-19T02:06:20.205Z,8.32
2018-08-19T02:08:54.798Z,9.15
2018-08-19T02:11:28.803Z,9.73
2018-08-19T02:14:02.619Z,7.75
2018-08-19T02:16:36.274Z,8.70
2018-08-19T02:19:10.874Z,8.32
2018-08-19T02:21:44.754Z,8.57
2018-08-19T02:24:19.427Z,8.27
2018-08-19T02:26:53.219Z,7.25
2018-08-19T02:29:27.044Z,8.68
2018-08-19T02:32:00.734Z,7.53
2018-08-19T02:34:34.420Z,7.55
2018-08-19T02:37:08.256Z,7.87
2018-08-19T02:39:42.144Z,7.62
2018-08-19T02:42:15.849Z,8.55
2018-08-19T02:44:49.723Z,7.93
2018-08-19T02:47:24.382Z,7.65
2018-08-19T02:49:58.977Z,7.35
2018-08-19T02:52:33.620Z,7.40
2018-08-19T02:55:08.256Z,7.80
2018-08-19T02:57:42.885Z,7.22
2018-08-19T03:00:16.694Z,8.27
2018-08-19T03:02:50.388Z,7.70
2018-08-19T03:05:24.159Z,7.50
2018-08-19T03:07:57.988Z,8.40
2018-08-19T03:10:31.710Z,6.90
2018-08-19T03:13:05.550Z,7.70
2018-08-19T03:15:40.127Z,7.80
2018-08-19T03:18:13.964Z,7.18
2018-08-19T03:20:48.486Z,7.55
2018-08-19T03:23:22.237Z,6.80
2018-08-19T03:25:56.904Z,7.10
2018-08-19T03:28:30.651Z,7.85
2018-08-19T03:31:04.507Z,6.80
2018-08-19T03:33:38.252Z,6.22
2018-08-19T03:36:12.181Z,6.55
2018-08-19T03:38:46.721Z,7.60
2018-08-19T03:41:21.361Z,6.35
2018-08-19T03:43:56.014Z,7.10
2018-08-19T03:46:29.780Z,7.70
2018-08-19T03:49:03.574Z,7.00
2018-08-19T03:51:37.411Z,7.60
2018-08-19T03:54:11.833Z,9.60
2018-08-19T03:56:45.604Z,10.07
2018-08-19T03:59:19.311Z,8.50
2018-08-19T04:01:53.158Z,9.30
2018-08-19T04:04:26.891Z,8.70
2018-08-19T04:07:00.756Z,9.00
2018-08-19T04:09:34.668Z,9.02
2018-08-19T04:12:09.298Z,9.00
2018-08-19T04:14:43.892Z,9.32
2018-08-19T04:17:17.797Z,9.00
2018-08-19T04:19:51.598Z,8.45
2018-08-19T04:22:25.392Z,7.87
2018-08-19T04:24:59.251Z,8.32
2018-08-19T04:27:32.916Z,8.20
2018-08-19T04:30:07.476Z,8.35
2018-08-19T04:32:42.114Z,8.18
2018-08-19T04:35:15.928Z,7.50
2018-08-19T04:37:49.848Z,7.70
2018-08-19T04:40:23.621Z,7.80
2018-08-19T04:42:57.316Z,6.37
2018-08-19T04:45:31.159Z,6.68
2018-08-19T04:48:05.827Z,6.95
2018-08-19T04:50:39.687Z,6.82
2018-08-19T04:53:13.468Z,6.70
2018-08-19T04:55:48.087Z,7.87
2018-08-19T04:58:21.895Z,8.88
2018-08-19T05:00:55.748Z,8.55
2018-08-19T05:03:29.544Z,9.90
2018-08-19T05:06:04.117Z,8.98
2018-08-19T05:08:37.876Z,8.52
2018-08-19T05:11:12.464Z,10.18
2018-08-19T05:13:47.584Z,9.85
2018-08-19T05:16:22.210Z,8.40
2018-08-19T05:18:55.970Z,9.52
2018-08-19T05:21:30.628Z,9.57
2018-08-19T05:24:04.426Z,9.25
2018-08-19T05:26:38.171Z,9.15
2018-08-19T05:29:12.800Z,10.85
2018-08-19T05:31:46.611Z,12.20
2018-08-19T05:34:20.422Z,12.27
2018-08-19T05:36:54.940Z,13.07
2018-08-19T05:39:28.715Z,12.00
2018-08-19T05:42:02.630Z,12.10
2018-08-19T05:44:36.534Z,11.57
2018-08-19T05:47:11.940Z,12.90
2018-08-19T05:49:46.383Z,13.05
2018-08-19T05:52:20.162Z,12.65
2018-08-19T05:54:54.759Z,12.73
2018-08-19T05:57:28.502Z,11.93
2018-08-19T06:00:02.277Z,12.83
2018-08-19T06:02:36.856Z,11.77
2018-08-19T06:05:10.756Z,11.98
2018-08-19T06:07:45.218Z,11.90
2018-08-19T06:10:19.040Z,11.63
2018-08-19T06:12:52.872Z,11.77
2018-08-19T06:15:27.212Z,11.73
2018-08-19T06:18:01.045Z,12.40
2018-08-19T06:20:35.778Z,13.40
2018-08-19T06:23:09.487Z,11.15
2018-08-19T06:25:43.408Z,12.10
2018-08-19T06:28:17.223Z,10.13
2018-08-19T06:30:50.943Z,11.53
2018-08-19T06:33:24.754Z,12.53
2018-08-19T06:35:59.300Z,11.00
2018-08-19T06:38:33.192Z,11.10
2018-08-19T06:41:06.995Z,10.30
2018-08-19T06:43:40.846Z,11.60
2018-08-19T06:46:14.772Z,11.53
2018-08-19T06:48:48.424Z,12.17
2018-08-19T06:51:22.274Z,10.43
2018-08-19T06:53:56.131Z,12.53
2018-08-19T06:56:29.971Z,11.87
2018-08-19T06:59:03.796Z,11.63
2018-08-19T07:01:38.327Z,10.23
2018-08-19T07:04:12.908Z,10.10
2018-08-19T07:06:46.652Z,10.50
2018-08-19T07:09:21.175Z,10.57
2018-08-19T07:11:55.083Z,10.70
2018-08-19T07:14:28.870Z,10.80
2018-08-19T07:17:03.256Z,9.70
2018-08-19T07:19:37.847Z,10.63
2018-08-19T07:22:12.421Z,9.30
2018-08-19T07:24:47.055Z,9.10
2018-08-19T07:27:21.595Z,10.43
2018-08-19T07:29:55.390Z,9.63
2018-08-19T07:32:29.298Z,9.30
2018-08-19T07:35:03.021Z,10.07
2018-08-19T07:37:36.748Z,9.97
2018-08-19T07:40:10.484Z,9.90
2018-08-19T07:42:45.043Z,9.17
2018-08-19T07:45:18.882Z,10.50
2018-08-19T07:47:52.583Z,9.37
2018-08-19T07:50:26.507Z,9.90
2018-08-19T07:53:01.015Z,10.00
2018-08-19T07:55:34.768Z,9.60
2018-08-19T07:58:08.589Z,9.90
2018-08-19T08:00:43.109Z,8.50
2018-08-19T08:03:17.651Z,8.63
2018-08-19T08:05:51.439Z,9.13
2018-08-19T08:08:25.225Z,9.80
2018-08-19T08:10:59.137Z,9.63
2018-08-19T08:13:33.122Z,9.43
2018-08-19T08:16:07.723Z,9.70
2018-08-19T08:18:41.497Z,9.00
2018-08-19T08:21:15.244Z,8.47
2018-08-19T08:23:49.633Z,9.20
2018-08-19T08:26:23.345Z,9.30
2018-08-19T08:28:57.185Z,7.87
2018-08-19T08:31:30.990Z,8.73
2018-08-19T08:34:04.727Z,8.07
2018-08-19T08:36:39.369Z,8.20
2018-08-19T08:39:13.120Z,7.80
2018-08-19T08:41:46.901Z,8.53
2018-08-19T08:44:20.743Z,8.73
2018-08-19T08:46:54.443Z,8.10
2018-08-19T08:49:28.194Z,8.20
2018-08-19T08:52:01.933Z,8.30
2018-08-19T08:54:35.769Z,9.17
2018-08-19T08:57:09.519Z,9.10
2018-08-19T08:59:44.034Z,9.13
2018-08-19T09:02:17.782Z,8.20
2018-08-19T09:04:51.603Z,7.60
2018-08-19T09:07:25.378Z,8.00
2018-08-19T09:09:59.190Z,8.63
2018-08-19T09:12:32.884Z,8.33
2018-08-19T09:15:07.408Z,8.43
2018-08-19T09:17:41.105Z,7.50
2018-08-19T09:20:14.948Z,8.37
2018-08-19T09:22:48.760Z,7.93
2018-08-19T09:25:23.344Z,8.67
2018-08-19T09:27:57.848Z,8.50
2018-08-19T09:30:31.619Z,8.23
2018-08-19T09:33:05.290Z,9.20
2018-08-19T09:35:39.068Z,8.20
2018-08-19T09:38:12.908Z,7.57
2018-08-19T09:40:46.631Z,7.27
2018-08-19T09:43:21.072Z,8.23
2018-08-19T09:45:54.918Z,8.57
2018-08-19T09:48:29.407Z,8.67
2018-08-19T09:51:04.112Z,7.37
2018-08-19T09:53:37.868Z,7.50
2018-08-19T09:56:11.707Z,6.50
2018-08-19T09:58:45.484Z,6.37
2018-08-19T10:01:20.009Z,9.10
2018-08-19T10:03:54.388Z,7.07
2018-08-19T10:06:28.099Z,6.80
2018-08-19T10:09:01.756Z,6.53
2018-08-19T10:11:36.131Z,6.40
2018-08-19T10:14:09.945Z,7.17
2018-08-19T10:16:43.563Z,6.13
2018-08-19T10:19:17.317Z,6.80
2018-08-19T10:21:51.079Z,6.67
2018-08-19T10:24:24.986Z,6.57
2018-08-19T10:26:58.811Z,5.87
2018-08-19T10:29:32.372Z,6.77
2018-08-19T10:32:06.271Z,6.13
2018-08-19T10:34:39.990Z,5.80
2018-08-19T10:37:13.716Z,5.90
2018-08-19T10:39:47.395Z,5.47
2018-08-19T10:42:21.178Z,5.60
2018-08-19T10:44:54.960Z,5.67
2018-08-19T10:47:28.708Z,6.43
2018-08-19T10:50:03.251Z,5.23
2018-08-19T10:52:36.843Z,5.53
2018-08-19T10:55:10.487Z,6.00
2018-08-19T10:57:44.288Z,5.30
2018-08-19T11:00:18.078Z,5.83
2018-08-19T11:02:51.920Z,6.33
2018-08-19T11:05:26.488Z,5.73
2018-08-19T11:08:00.295Z,5.13
2018-08-19T11:10:34.920Z,6.07
2018-08-19T11:13:08.532Z,5.57
2018-08-19T11:15:42.326Z,5.90
2018-08-19T11:20:53.923Z,6.10
2018-08-19T11:23:28.519Z,6.23
2018-08-19T11:26:02.392Z,8.00
2018-08-19T11:28:36.119Z,6.90
2018-08-19T11:31:09.768Z,6.87
2018-08-19T11:33:43.621Z,5.90
2018-08-19T11:36:17.209Z,6.33
2018-08-19T11:38:51.002Z,5.87
2018-08-19T11:41:24.711Z,5.73
2018-08-19T11:43:59.293Z,5.67
2018-08-19T11:46:33.084Z,6.37
2018-08-19T11:49:07.550Z,5.97
2018-08-19T11:51:42.123Z,5.70
2018-08-19T11:54:15.925Z,5.77
2018-08-19T11:56:49.655Z,6.80
2018-08-19T11:59:23.534Z,6.20
2018-08-19T12:01:57.349Z,5.80
2018-08-19T12:04:31.915Z,5.83
2018-08-19T12:07:06.411Z,6.20
2018-08-19T12:09:40.126Z,6.40
2018-08-19T12:12:13.807Z,5.27
2018-08-19T12:14:48.368Z,6.10
2018-08-19T12:17:22.861Z,6.53
2018-08-19T12:19:56.564Z,6.67
2018-08-19T12:22:30.191Z,6.00
2018-08-19T12:25:04.102Z,5.80
2018-08-19T12:27:37.990Z,5.87
2018-08-19T12:30:11.711Z,6.40
2018-08-19T12:32:46.234Z,6.10
2018-08-19T12:35:20.011Z,6.70
2018-08-19T12:37:53.832Z,6.00
2018-08-19T12:40:27.650Z,5.17
2018-08-19T12:43:01.478Z,6.30
2018-08-19T12:45:35.237Z,5.20
2018-08-19T12:48:09.126Z,6.40
2018-08-19T12:50:43.492Z,5.57
2018-08-19T12:53:17.305Z,5.23
2018-08-19T12:55:51.150Z,5.50
2018-08-19T12:58:24.904Z,5.60
2018-08-19T13:00:58.740Z,6.10
2018-08-19T13:03:33.683Z,5.80
2018-08-19T13:06:07.383Z,5.43
2018-08-19T13:08:41.211Z,5.70
2018-08-19T13:11:15.823Z,5.90
2018-08-19T13:13:49.530Z,6.30
2018-08-19T13:16:23.330Z,5.20
2018-08-19T13:18:57.883Z,5.50
2018-08-19T13:21:32.572Z,6.20
2018-08-19T13:24:06.336Z,6.70
2018-08-19T13:26:40.077Z,6.00
2018-08-19T13:29:13.697Z,6.10
2018-08-19T13:31:47.520Z,5.60
2018-08-19T13:34:22.068Z,6.10
2018-08-19T13:36:55.928Z,6.13
2018-08-19T13:39:30.480Z,6.10
2018-08-19T13:42:04.259Z,6.53
2018-08-19T13:44:38.056Z,6.00
2018-08-19T13:47:12.624Z,6.43
2018-08-19T13:49:46.540Z,5.97
2018-08-19T13:52:20.144Z,5.97
2018-08-19T13:54:53.908Z,5.83
2018-08-19T13:57:28.508Z,6.67
2018-08-19T14:00:02.162Z,6.37
2018-08-19T14:02:35.979Z,6.90
2018-08-19T14:05:09.789Z,6.43
2018-08-19T14:07:44.334Z,8.17
2018-08-19T14:10:18.859Z,6.23
2018-08-19T14:12:52.555Z,6.70
2018-08-19T14:15:27.185Z,6.83
2018-08-19T14:18:00.855Z,5.60
2018-08-19T14:20:35.426Z,5.60
2018-08-19T14:23:09.094Z,6.97
2018-08-19T14:25:42.923Z,7.00
2018-08-19T14:28:17.412Z,5.57
2018-08-19T14:30:51.320Z,6.10
2018-08-19T14:33:25.113Z,6.50
2018-08-19T14:35:58.879Z,6.00
2018-08-19T14:38:32.673Z,6.13
2018-08-19T14:41:06.483Z,5.80
2018-08-19T14:43:40.280Z,6.30
2018-08-19T14:46:14.852Z,6.50
2018-08-19T14:48:48.518Z,5.87
2018-08-19T14:51:22.238Z,6.00
2018-08-19T14:53:56.117Z,6.10
2018-08-19T14:56:29.953Z,6.40
2018-08-19T14:59:03.729Z,5.77
2018-08-19T15:01:37.553Z,5.70
2018-08-19T15:04:11.313Z,6.10
2018-08-19T15:06:45.079Z,5.83
2018-08-19T15:09:18.967Z,5.93
2018-08-19T15:11:52.729Z,6.07
2018-08-19T15:14:26.389Z,5.73
2018-08-19T15:17:00.250Z,6.20
2018-08-19T15:19:34.081Z,6.23
2018-08-19T15:22:08.472Z,6.87
2018-08-19T15:24:42.335Z,6.10
2018-08-19T15:27:15.935Z,6.10
2018-08-19T15:29:50.687Z,6.13
2018-08-19T15:32:24.652Z,7.17
2018-08-19T15:34:58.344Z,6.90
2018-08-19T15:37:32.151Z,6.10
2018-08-19T15:40:05.767Z,6.17
2018-08-19T15:42:39.727Z,7.07
2018-08-19T15:45:13.427Z,6.70
2018-08-19T15:47:47.223Z,5.70
2018-08-19T15:50:21.687Z,6.67
2018-08-19T15:52:55.583Z,6.80
2018-08-19T15:55:29.891Z,6.77
2018-08-19T15:58:03.695Z,6.97
2018-08-19T16:00:37.379Z,5.97
2018-08-19T16:03:11.304Z,5.90
2018-08-19T16:05:45.221Z,6.00
2018-08-19T16:08:18.991Z,6.20
2018-08-19T16:10:52.828Z,6.03
2018-08-19T16:13:26.611Z,6.40
2018-08-19T16:16:00.379Z,5.73
2018-08-19T16:18:34.131Z,6.73
2018-08-19T16:21:08.707Z,6.53
2018-08-19T16:23:42.374Z,5.93
2018-08-19T16:26:16.129Z,5.97
2018-08-19T16:28:49.936Z,6.10
2018-08-19T16:31:24.397Z,6.13
2018-08-19T16:33:58.314Z,6.23
2018-08-19T16:36:31.952Z,6.00
2018-08-19T16:39:06.568Z,6.60
2018-08-19T16:41:40.312Z,6.20
2018-08-19T16:44:13.943Z,5.63
2018-08-19T16:46:47.665Z,5.40
2018-08-19T16:49:22.275Z,5.23
2018-08-19T16:51:56.208Z,5.27
2018-08-19T16:54:30.601Z,5.80
2018-08-19T16:57:04.447Z,5.37
2018-08-19T16:59:38.316Z,6.30
2018-08-19T17:02:12.887Z,5.40
2018-08-19T17:04:47.442Z,5.93
2018-08-19T17:07:21.919Z,5.80
2018-08-19T17:09:56.344Z,6.90
2018-08-19T17:12:30.787Z,5.87
2018-08-19T17:15:04.580Z,5.87
2018-08-19T17:17:38.319Z,5.80
2018-08-19T17:20:12.147Z,5.73
2018-08-19T17:22:46.035Z,6.00
2018-08-19T17:25:19.767Z,5.77
2018-08-19T17:27:54.413Z,5.70
2018-08-19T17:30:28.766Z,6.60
2018-08-19T17:33:02.458Z,6.07
2018-08-19T17:35:36.164Z,6.50
2018-08-19T17:38:09.984Z,5.77
2018-08-19T17:40:43.795Z,6.60
2018-08-19T17:43:17.560Z,6.60
2018-08-19T17:45:51.513Z,6.30
2018-08-19T17:48:26.236Z,5.40
2018-08-19T17:51:00.852Z,6.30
2018-08-19T17:53:34.519Z,5.30
2018-08-19T17:56:09.137Z,5.30
2018-08-19T17:58:42.872Z,5.93
2018-08-19T18:01:16.697Z,5.60
2018-08-19T18:03:50.460Z,6.53
2018-08-19T18:06:25.096Z,5.80
2018-08-19T18:08:58.836Z,6.03
2018-08-19T18:11:32.569Z,6.37
2018-08-19T18:14:06.323Z,5.57
2018-08-19T18:16:40.334Z,5.90
2018-08-19T18:19:14.992Z,6.50
2018-08-19T18:21:49.521Z,6.30
2018-08-19T18:24:24.151Z,5.80
2018-08-19T18:26:58.026Z,6.17
2018-08-19T18:29:31.885Z,7.13
2018-08-19T18:32:05.744Z,6.97
2018-08-19T18:34:40.327Z,6.53
2018-08-19T18:37:13.955Z,6.17
2018-08-19T18:39:47.833Z,6.80
2018-08-19T18:42:21.612Z,6.57
2018-08-19T18:44:56.546Z,6.37
2018-08-19T18:47:30.480Z,6.53
2018-08-19T18:50:04.211Z,6.33
2018-08-19T18:52:37.991Z,6.67
2018-08-19T18:55:12.624Z,8.13
2018-08-19T18:57:46.888Z,7.50
2018-08-19T19:00:20.558Z,8.70
2018-08-19T19:02:54.390Z,6.50
2018-08-19T19:05:28.167Z,7.20
2018-08-19T19:08:01.981Z,6.83
2018-08-19T19:10:35.796Z,7.07
2018-08-19T19:13:09.524Z,6.83
2018-08-19T19:15:44.071Z,8.20
2018-08-19T19:18:17.848Z,7.27
2018-08-19T19:20:51.583Z,6.90
2018-08-19T19:23:25.542Z,8.00
2018-08-19T19:25:59.182Z,6.70
2018-08-19T19:28:33.707Z,7.23
2018-08-19T19:31:08.145Z,7.20
2018-08-19T19:33:41.876Z,7.60
2018-08-19T19:36:15.723Z,8.77
2018-08-19T19:38:49.491Z,8.50
2018-08-19T19:41:23.267Z,7.20
2018-08-19T19:43:56.926Z,7.13
2018-08-19T19:46:31.616Z,7.40
2018-08-19T19:49:05.372Z,7.30
2018-08-19T19:51:39.205Z,8.40
2018-08-19T19:54:12.938Z,8.87
2018-08-19T19:56:47.471Z,6.90
2018-08-19T19:59:21.183Z,7.00
2018-08-19T20:01:55.928Z,11.07
2018-08-19T20:04:29.643Z,7.47
2018-08-19T20:07:04.203Z,6.30
2018-08-19T20:09:37.982Z,6.80
2018-08-19T20:12:12.551Z,7.50
2018-08-19T20:14:46.294Z,6.50
2018-08-19T20:17:20.091Z,7.17
2018-08-19T20:19:54.552Z,7.23
2018-08-19T20:22:28.319Z,9.07
2018-08-19T20:25:02.073Z,8.80
2018-08-19T20:27:35.908Z,7.50
2018-08-19T20:30:09.516Z,6.33
2018-08-19T20:32:44.056Z,6.77
2018-08-19T20:35:17.848Z,7.60
2018-08-19T20:37:51.640Z,8.00
2018-08-19T20:40:25.684Z,7.00
2018-08-19T20:42:59.491Z,7.80
2018-08-19T20:45:33.963Z,8.10
2018-08-19T20:48:08.491Z,7.63
2018-08-19T20:50:42.344Z,8.57
2018-08-19T20:53:16.208Z,7.90
2018-08-19T20:55:50.700Z,8.87
2018-08-19T20:58:24.552Z,7.70
2018-08-19T21:00:58.312Z,7.70
2018-08-19T21:03:32.151Z,8.17
2018-08-19T21:06:05.878Z,7.73
2018-08-19T21:08:40.346Z,7.40
2018-08-19T21:11:14.167Z,7.57
2018-08-19T21:13:47.983Z,7.03
2018-08-19T21:16:21.782Z,6.47
2018-08-19T21:18:55.567Z,7.17
2018-08-19T21:21:29.304Z,6.90
2018-08-19T21:24:02.929Z,6.63
2018-08-19T21:26:37.409Z,6.47
2018-08-19T21:29:11.234Z,6.07
2018-08-19T21:31:45.628Z,6.00
2018-08-19T21:34:19.380Z,9.00
2018-08-19T21:36:53.144Z,5.97
2018-08-19T21:39:26.917Z,5.47
2018-08-19T21:42:00.660Z,5.97
2018-08-19T21:44:34.535Z,5.90
2018-08-19T21:47:08.323Z,5.60
2018-08-19T21:49:41.991Z,6.10
2018-08-19T21:52:15.906Z,5.27
2018-08-19T21:54:50.482Z,5.40
2018-08-19T21:57:24.170Z,5.77
2018-08-19T21:59:57.920Z,6.30
2018-08-19T22:02:32.510Z,5.20
2018-08-19T22:05:06.246Z,5.80
2018-08-19T22:07:40.010Z,5.70
2018-08-19T22:10:14.501Z,4.70
2018-08-19T22:12:48.156Z,5.27
2018-08-19T22:15:21.915Z,4.60
2018-08-19T22:17:55.718Z,5.20
2018-08-19T22:20:29.544Z,4.77
2018-08-19T22:23:03.325Z,5.83
2018-08-19T22:25:37.939Z,5.30
2018-08-19T22:28:11.684Z,4.93
2018-08-19T22:30:45.513Z,5.00
2018-08-19T22:33:19.228Z,5.00
2018-08-19T22:35:53.037Z,5.20
2018-08-19T22:38:26.727Z,4.90
2018-08-19T22:41:00.527Z,5.30
2018-08-19T22:43:34.343Z,5.20
2018-08-19T22:46:08.207Z,4.93
2018-08-19T22:48:41.998Z,4.63
2018-08-19T22:51:15.760Z,4.93
2018-08-19T22:53:49.572Z,5.30
2018-08-19T22:56:23.172Z,4.93
2018-08-19T22:58:57.020Z,4.60
2018-08-19T23:01:30.934Z,5.10
2018-08-19T23:04:04.774Z,5.60
2018-08-19T23:06:38.522Z,5.90
2018-08-19T23:09:12.338Z,4.97
2018-08-19T23:11:47.030Z,5.50
2018-08-19T23:17:17.722Z,6.03
2018-08-19T23:19:51.572Z,9.63
2018-08-19T23:22:26.269Z,6.50
2018-08-19T23:25:00.843Z,6.20
2018-08-19T23:27:35.503Z,6.77
2018-08-19T23:30:09.910Z,5.83
2018-08-19T23:32:44.558Z,4.83
2018-08-19T23:35:18.409Z,5.50
2018-08-19T23:37:52.111Z,5.90
2018-08-19T23:40:25.949Z,6.07
2018-08-19T23:42:59.719Z,5.80
2018-08-19T23:45:34.403Z,6.37
2018-08-19T23:48:09.026Z,7.07
2018-08-19T23:50:42.730Z,5.57
2018-08-19T23:53:16.503Z,5.80
2018-08-19T23:55:50.366Z,6.23
2018-08-19T23:58:24.922Z,6.60
